Time;durP1;ratioP1;P1;durP2;ratioP2;P2;SDS_P1;SDS_P2;PMS_P1;PMS_P2;Temp;Humidity;BMP_temperature;BMP_pressure;BME280_temperature;BME280_humidity;BME280_pressure;Samples;Min_cycle;Max_cycle;Signal;HPM_P1;HPM_P2
2023/04/16 00:05:31;;;;;;;8.15;5.28;;;;;;;19.91;50.71;101722.53;20655383;28;20050;-65
2023/04/16 00:15:33;;;;;;;7.55;5.07;;;;;;;19.88;50.85;101731.72;20654239;28;20054;-65
2023/04/16 00:25:34;;;;;;;7.93;5.35;;;;;;;19.84;50.83;101738.38;20652754;28;20050;-65
2023/04/16 00:35:39;;;;;;;6.47;5.23;;;;;;;19.81;51.14;101739.47;20652167;28;20538;-65
2023/04/16 00:45:43;;;;;;;6.68;5.13;;;;;;;19.79;51.07;101752.25;20649738;28;20050;-65
2023/04/16 00:55:44;;;;;;;8.13;5.23;;;;;;;19.76;51.05;101757.91;20650518;28;20047;-65
2023/04/16 01:05:50;;;;;;;8.15;5.50;;;;;;;19.76;50.97;101757.91;20650192;28;20049;-65
2023/04/16 01:15:54;;;;;;;6.43;5.10;;;;;;;19.76;50.93;101762.47;20648151;28;20054;-65
2023/04/16 01:25:56;;;;;;;7.93;5.18;;;;;;;19.74;50.94;101768.00;20655510;28;20093;-65
2023/04/16 01:35:59;;;;;;;7.43;4.53;;;;;;;19.74;50.88;101780.66;20651054;28;20561;-65
2023/04/16 01:46:17;;;;;;;8.07;5.35;;;;;;;19.71;50.84;101773.66;20655864;28;20453;-64
2023/04/16 01:56:20;;;;;;;5.90;4.97;;;;;;;19.69;51.06;101773.78;20655041;28;20050;-65
2023/04/16 02:06:22;;;;;;;7.25;5.07;;;;;;;19.69;50.91;101773.78;20654881;28;20498;-65
2023/04/16 02:16:25;;;;;;;6.38;5.10;;;;;;;19.69;50.90;101778.31;20655791;28;20507;-65
2023/04/16 02:26:32;;;;;;;6.75;5.45;;;;;;;19.66;50.73;101774.00;20638814;28;20431;-65
2023/04/16 02:36:39;;;;;;;7.07;4.82;;;;;;;19.66;50.80;101773.19;20652975;28;20487;-65
2023/04/16 02:46:44;;;;;;;;;;;;;;;19.66;50.60;101778.56;20653541;28;20496;-65
2023/04/16 02:56:56;;;;;;;6.30;5.05;;;;;;;19.63;50.75;101781.53;20652238;28;20394;-65
2023/04/16 03:06:58;;;;;;;7.05;5.40;;;;;;;19.64;50.56;101780.53;20655577;28;20069;-65
2023/04/16 03:16:59;;;;;;;6.28;5.00;;;;;;;19.65;50.75;101788.50;20666353;28;20062;-65
2023/04/16 03:27:01;;;;;;;6.10;4.63;;;;;;;19.68;50.58;101796.38;20666332;28;20541;-65
2023/04/16 03:37:07;;;;;;;5.60;4.40;;;;;;;19.73;50.55;101804.09;20665381;28;20569;-65
2023/04/16 03:47:11;;;;;;;5.30;4.47;;;;;;;19.77;50.32;101807.41;20664585;28;20054;-65
2023/04/16 03:57:12;;;;;;;5.72;4.72;;;;;;;19.80;50.32;101810.69;20664115;28;20046;-65
2023/04/16 04:07:15;;;;;;;5.13;4.07;;;;;;;19.82;50.09;101816.00;20663867;28;20055;-65
2023/04/16 04:17:19;;;;;;;6.22;4.40;;;;;;;19.85;50.22;101819.28;20661929;28;20058;-65
2023/04/16 04:27:25;;;;;;;5.10;4.30;;;;;;;19.88;50.07;101830.81;20646285;28;20081;-65
2023/04/16 04:37:29;;;;;;;4.80;4.30;;;;;;;19.85;50.06;101827.38;20661323;28;20198;-65
2023/04/16 04:47:36;;;;;;;5.13;4.18;;;;;;;19.92;49.90;101841.28;20658363;28;20074;-64
2023/04/16 04:57:41;;;;;;;6.63;5.20;;;;;;;19.94;50.03;101842.03;20659408;28;20096;-65
2023/04/16 05:07:45;;;;;;;5.68;5.00;;;;;;;19.93;50.04;101855.69;20659185;28;20046;-65
2023/04/16 05:17:47;;;;;;;6.20;5.57;;;;;;;19.84;49.79;101850.00;20659174;28;20038;-65
2023/04/16 05:27:51;;;;;;;5.32;4.70;;;;;;;19.94;49.80;101868.22;20657542;28;20112;-65
2023/04/16 05:37:52;;;;;;;7.13;5.53;;;;;;;19.92;49.96;101875.59;20657747;28;20052;-65
2023/04/16 05:47:58;;;;;;;5.70;4.55;;;;;;;19.93;50.03;101886.25;20636952;28;20060;-65
2023/04/16 05:58:03;;;;;;;6.38;5.10;;;;;;;19.96;50.09;101893.25;20628039;28;20070;-64
2023/04/16 06:08:07;;;;;;;6.93;5.73;;;;;;;20.00;50.49;101905.53;20625476;28;20044;-64
2023/04/16 06:18:13;;;;;;;6.68;5.10;;;;;;;20.04;50.04;101912.41;20620656;28;20054;-64
2023/04/16 06:28:15;;;;;;;7.05;5.43;;;;;;;20.07;50.01;101912.16;20595128;28;20042;-64
2023/04/16 06:38:19;;;;;;;6.85;5.57;;;;;;;20.11;50.06;101934.41;20595039;28;20046;-64
2023/04/16 06:48:21;;;;;;;7.18;5.00;;;;;;;20.14;50.09;101939.56;20608129;28;20120;-64
2023/04/16 06:58:24;;;;;;;5.30;3.90;;;;;;;20.19;50.03;101949.97;20610521;28;20098;-64
2023/04/16 07:08:28;;;;;;;5.90;4.50;;;;;;;20.22;50.02;101957.81;20620179;28;20125;-65
2023/04/16 07:18:30;;;;;;;7.53;5.30;;;;;;;20.23;49.98;101965.81;20641175;28;20515;-64
2023/04/16 07:28:31;;;;;;;6.30;5.20;;;;;;;20.20;50.22;101970.63;20644546;28;20050;-65
2023/04/16 07:38:33;;;;;;;6.60;4.85;;;;;;;20.25;50.00;101969.25;20649940;28;20053;-64
2023/04/16 07:48:35;;;;;;;6.07;4.68;;;;;;;20.31;50.03;101989.50;20641779;28;20054;-64
2023/04/16 07:58:40;;;;;;;6.93;5.18;;;;;;;20.27;50.21;101978.09;20611313;28;20126;-64
2023/04/16 08:08:42;;;;;;;5.47;4.37;;;;;;;20.35;50.11;102007.25;20626411;28;20410;-65
2023/04/16 08:18:44;;;;;;;5.63;4.40;;;;;;;20.39;50.44;102011.41;20602287;28;20050;-64
2023/04/16 08:28:48;;;;;;;6.53;4.73;;;;;;;20.43;50.71;102010.16;20661736;28;20043;-65
2023/04/16 08:38:51;;;;;;;6.30;4.30;;;;;;;20.51;50.89;102016.78;20649746;28;20070;-65
2023/04/16 08:48:56;;;;;;;4.53;3.78;;;;;;;20.68;51.08;102018.94;20651522;28;20070;-64
2023/04/16 08:59:00;;;;;;;5.63;4.07;;;;;;;20.87;51.75;102033.69;20657185;28;20042;-65
2023/04/16 09:09:05;;;;;;;5.10;4.07;;;;;;;21.04;52.02;102037.69;20646949;28;20072;-65
2023/04/16 09:19:09;;;;;;;6.88;4.45;;;;;;;21.13;52.04;102046.84;20650841;28;20507;-64
2023/04/16 09:29:32;;;;;;;5.10;4.30;;;;;;;21.13;52.28;102038.72;20645667;28;20047;-64
2023/04/16 09:39:33;;;;;;;7.03;5.03;;;;;;;21.26;52.18;102046.69;20639549;28;20070;-64
2023/04/16 09:49:41;;;;;;;6.45;4.20;;;;;;;21.30;52.14;102056.25;20630657;28;20042;-64
2023/04/16 09:59:45;;;;;;;6.15;4.32;;;;;;;21.34;52.00;102065.84;20629498;28;20047;-63
2023/04/16 10:09:47;;;;;;;8.33;5.40;;;;;;;21.35;52.65;102055.88;20652956;28;20053;-64
2023/04/16 10:19:51;;;;;;;8.20;5.00;;;;;;;21.42;52.69;102060.63;20628108;28;20055;-64
2023/04/16 10:29:54;;;;;;;8.07;5.28;;;;;;;21.44;52.53;102053.25;20635054;28;20052;-63
2023/04/16 10:39:55;;;;;;;5.85;3.97;;;;;;;21.49;52.17;102066.38;20628454;28;20066;-65
2023/04/16 10:49:57;;;;;;;8.00;4.90;;;;;;;21.52;51.94;102059.84;20632528;28;20051;-65
2023/04/16 11:00:01;;;;;;;6.22;4.07;;;;;;;21.55;51.78;102051.44;20652629;28;20062;-64
2023/04/16 11:10:10;;;;;;;5.67;4.17;;;;;;;21.56;51.84;102045.88;20644930;28;20057;-64
2023/04/16 11:20:23;;;;;;;6.13;4.38;;;;;;;21.59;51.70;102050.19;20630657;28;20050;-64
2023/04/16 11:30:32;;;;;;;6.47;4.33;;;;;;;21.59;51.65;102048.31;20650982;28;20047;-65
2023/04/16 11:40:35;;;;;;;6.35;4.53;;;;;;;21.59;51.48;102052.91;20636408;28;20066;-65
2023/04/16 11:50:38;;;;;;;5.75;4.47;;;;;;;21.59;51.38;102051.03;20639035;28;20049;-65
2023/04/16 12:00:42;;;;;;;5.93;4.28;;;;;;;21.57;51.20;102052.19;20654308;28;20113;-65
2023/04/16 12:10:54;;;;;;;5.25;4.40;;;;;;;21.61;51.29;102048.22;20660833;28;20061;-64
2023/04/16 12:20:58;;;;;;;4.72;4.15;;;;;;;21.66;51.48;102055.97;20655230;28;20046;-64
2023/04/16 12:31:01;;;;;;;4.68;3.70;;;;;;;21.66;51.18;102053.28;20635884;28;20422;-65
2023/04/16 12:41:05;;;;;;;5.50;4.10;;;;;;;21.64;51.33;102060.66;20619748;28;20140;-65
2023/04/16 12:51:09;;;;;;;5.35;4.10;;;;;;;21.57;51.31;102058.44;20627884;28;20050;-66
2023/04/16 13:01:10;;;;;;;5.95;4.57;;;;;;;21.55;51.23;102065.00;20633193;28;20058;-66
2023/04/16 13:11:14;;;;;;;5.00;4.30;;;;;;;21.56;51.27;102067.56;20611321;28;20125;-66
2023/04/16 13:21:16;;;;;;;5.60;4.13;;;;;;;21.55;51.28;102065.84;20606613;28;20541;-66
2023/04/16 13:31:20;;;;;;;5.75;4.22;;;;;;;21.56;51.40;102056.72;20616454;28;20058;-66
2023/04/16 13:41:22;;;;;;;7.90;5.25;;;;;;;21.56;51.76;102056.72;20595021;28;20065;-65
2023/04/16 13:51:26;;;;;;;5.13;3.70;;;;;;;21.58;51.48;102062.88;20613783;28;20193;-66
2023/04/16 14:01:28;;;;;;;6.93;4.07;;;;;;;21.57;51.43;102069.28;20614943;28;20054;-66
2023/04/16 14:11:30;;;;;;;6.15;4.03;;;;;;;21.53;51.49;102054.28;20618512;28;20082;-66
2023/04/16 14:21:34;;;;;;;5.18;4.10;;;;;;;21.61;51.23;102064.47;20626420;28;20061;-66
2023/04/16 14:31:36;;;;;;;5.05;4.35;;;;;;;21.63;51.34;102072.44;20638017;28;20038;-66
2023/04/16 14:41:37;;;;;;;5.03;3.80;;;;;;;21.62;51.35;102065.31;20629634;28;20133;-66
2023/04/16 14:51:40;;;;;;;4.75;4.15;;;;;;;21.62;51.23;102066.19;20633319;28;20054;-66
2023/04/16 15:01:41;;;;;;;4.28;3.50;;;;;;;21.65;52.20;102059.66;20641007;28;20454;-78
2023/04/16 15:11:43;;;;;;;4.93;3.38;;;;;;;21.58;51.52;102065.56;20627777;28;20076;-74
2023/04/16 15:21:47;;;;;;;7.07;3.80;;;;;;;21.51;51.20;102058.97;20628804;28;20125;-74
2023/04/16 15:31:51;;;;;;;7.20;4.25;;;;;;;21.46;51.34;102061.22;20624405;28;20948;-72
2023/04/16 15:41:53;;;;;;;5.60;3.87;;;;;;;21.42;51.19;102071.44;20642482;28;20046;-74
2023/04/16 15:52:03;;;;;;;4.15;3.63;;;;;;;21.42;51.59;102070.59;20612377;28;20058;-76
2023/04/16 16:02:04;;;;;;;4.47;3.60;;;;;;;21.50;52.80;102070.81;20644406;28;20049;-71
2023/04/16 16:12:08;;;;;;;10.68;5.50;;;;;;;21.64;54.65;102074.19;20635010;28;20045;-71
2023/04/16 16:22:10;;;;;;;11.87;7.43;;;;;;;21.75;56.21;102074.16;20641697;28;20046;-71
2023/04/16 16:32:15;;;;;;;8.90;4.95;;;;;;;21.88;57.38;102085.63;20611305;28;20136;-70
2023/04/16 16:42:17;;;;;;;10.70;5.28;;;;;;;21.95;57.63;102091.38;20616989;28;20054;-69
2023/04/16 16:52:22;;;;;;;7.83;5.63;;;;;;;21.82;57.37;102088.88;20606514;28;20597;-71
2023/04/16 17:02:24;;;;;;;6.87;5.10;;;;;;;21.77;57.38;102104.69;20613289;28;20042;-71
2023/04/16 17:12:26;;;;;;;8.23;5.45;;;;;;;21.68;57.54;102105.50;20606551;28;20050;-70
2023/04/16 17:22:27;;;;;;;6.57;4.88;;;;;;;21.62;57.49;102100.53;20600822;28;20179;-71
2023/04/16 17:32:31;;;;;;;5.05;3.75;;;;;;;21.56;57.29;102108.22;20567884;28;20129;-71
2023/04/16 17:42:33;;;;;;;7.40;4.70;;;;;;;21.54;56.84;102107.47;20592283;28;20511;-73
2023/04/16 17:52:36;;;;;;;5.70;3.80;;;;;;;21.51;56.32;102126.72;20597437;28;20725;-75
2023/04/16 18:02:39;;;;;;;7.97;4.27;;;;;;;21.54;56.04;102137.28;20593816;28;20109;-75
2023/04/16 18:12:41;;;;;;;7.30;3.80;;;;;;;21.52;55.67;102146.56;20590882;28;20556;-73
2023/04/16 18:22:44;;;;;;;5.15;4.00;;;;;;;21.50;55.35;102167.50;20591121;28;20050;-74
2023/04/16 18:32:46;;;;;;;5.20;4.10;;;;;;;21.40;55.13;102170.97;20629894;28;20084;-79
2023/04/16 18:43:08;;;;;;;4.82;3.60;;;;;;;21.42;54.61;102189.81;20635957;28;20141;-79
2023/04/16 18:53:09;;;;;;;5.32;4.05;;;;;;;21.34;54.42;102206.69;20649170;28;20053;-78
2023/04/16 19:03:11;;;;;;;3.97;3.33;;;;;;;21.25;54.42;102216.47;20670259;28;20088;-78
2023/04/16 19:13:15;;;;;;;4.30;3.47;;;;;;;21.18;54.39;102226.06;20648125;28;20125;-78
2023/04/16 19:23:17;;;;;;;3.90;3.47;;;;;;;21.14;54.02;102235.41;20651516;28;20678;-77
2023/04/16 19:33:23;;;;;;;3.85;3.40;;;;;;;21.07;53.86;102237.78;20627835;28;20048;-78
2023/04/16 19:43:29;;;;;;;4.22;3.83;;;;;;;21.00;53.64;102241.97;20645725;28;20053;-78
2023/04/16 19:53:32;;;;;;;4.10;3.72;;;;;;;20.95;53.43;102247.75;20649542;28;20058;-79
2023/04/16 20:03:37;;;;;;;4.63;3.63;;;;;;;20.90;53.31;102255.38;20662479;28;20120;-78
2023/04/16 20:13:39;;;;;;;7.65;6.28;;;;;;;20.87;54.37;102247.53;20652005;28;20069;-77
2023/04/16 20:23:40;;;;;;;5.18;4.65;;;;;;;20.88;56.15;102249.25;20618243;28;20419;-77
2023/04/16 20:33:45;;;;;;;4.20;3.43;;;;;;;20.86;56.56;102253.91;20629865;28;20137;-77
2023/04/16 20:43:49;;;;;;;4.78;4.25;;;;;;;20.81;56.06;102273.22;20606619;28;20793;-76
2023/04/16 20:53:50;;;;;;;4.77;4.03;;;;;;;20.79;55.61;102269.78;20643301;28;20042;-77
2023/04/16 21:03:54;;;;;;;4.18;3.55;;;;;;;20.77;55.30;102271.72;20646975;28;20078;-77
2023/04/16 21:13:56;;;;;;;5.53;4.77;;;;;;;20.74;55.08;102282.78;20650580;28;20058;-77
2023/04/16 21:24:01;;;;;;;5.18;4.10;;;;;;;20.71;54.39;102283.88;20635900;28;20438;-77
2023/04/16 21:34:02;;;;;;;5.28;4.72;;;;;;;20.68;54.00;102278.69;20639531;28;20055;-76
2023/04/16 21:44:04;;;;;;;3.95;3.50;;;;;;;20.63;53.78;102280.91;20631069;28;20455;-77
2023/04/16 21:54:06;;;;;;;4.20;3.75;;;;;;;20.59;53.53;102276.72;20642838;28;20527;-77
2023/04/16 22:04:10;;;;;;;3.63;3.27;;;;;;;20.57;53.47;102276.00;20644689;28;20086;-77
2023/04/16 22:14:13;;;;;;;4.10;3.70;;;;;;;20.60;53.23;102275.75;20634337;28;20101;-77
2023/04/16 22:24:17;;;;;;;4.25;3.85;;;;;;;20.63;52.76;102264.69;20638203;28;20050;-78
2023/04/16 22:34:19;;;;;;;3.85;3.45;;;;;;;20.64;52.72;102266.41;20634479;28;20060;-77
2023/04/16 22:44:20;;;;;;;4.03;3.58;;;;;;;20.64;52.50;102270.97;20630546;28;20101;-77
2023/04/16 22:54:26;;;;;;;5.32;4.40;;;;;;;20.64;52.40;102260.16;20642145;28;20125;-78
2023/04/16 23:04:28;;;;;;;4.40;4.00;;;;;;;20.61;52.01;102255.81;20633268;28;20057;-78
2023/04/16 23:14:30;;;;;;;4.30;3.90;;;;;;;20.61;52.02;102265.81;20633975;28;20093;-78
2023/04/16 23:24:31;;;;;;;4.93;3.67;;;;;;;20.58;52.05;102262.34;20642537;28;20066;-78
2023/04/16 23:34:33;;;;;;;4.50;4.10;;;;;;;20.58;51.72;102275.00;20643487;28;20042;-78
2023/04/16 23:44:35;;;;;;;5.00;4.50;;;;;;;20.52;51.86;102281.75;20648183;28;20074;-77
2023/04/16 23:54:36;;;;;;;4.38;3.97;;;;;;;20.48;51.69;102279.44;20653998;28;20517;-77
